TN18 weather

Richardson Strip
Eads, Tennessee, United States

Public forecast

Using degrees Fahrenheit for public forecast. Weather courtesy of forecast.io.

METAR (pilot weather report)

Closest report is Millington-Memphis Airport, 13.5 nm (25.1 km) NW. Retrieved 2019/06/17 19:50 UTC (57 minutes ago):

KNQA 171950Z 18006KT 10SM CLR 29/21 A2993

TAF (pilot weather forecast)

Closest forecast is Memphis International Airport, 18.1 nm (33.5 km) WSW. Retrieved 2019/06/17 18:36 UTC (2 hours ago):

TAF KMEM 171735Z 1718/1824 21010G16KT P6SM VCSH SCT050 BKN150 FM172200 18010KT P6SM VCTS SCT040CB BKN120 FM180300 18006KT P6SM SCT030 BKN100 TEMPO 1809/1813 BKN020 FM181800 19008KT P6SM VCSH SCT040 BKN120